Latest Coastal Weather Observations for Hopetoun North

IDW60701

Issued at 5:45 am WST Friday 1 August 2014 (issued every 10 minutes, with the page automatically refreshed every 10 minutes)

About coastal observations | Map of coastal stations | Coastal observations for WA | Marine services | Other Formats
Station Details ID: 009961 Name: HOPETOUN NORTH Lat: -33.93 Lon: 120.13 Height: 26.0 m
Data from the previous 72 hours. | See also: Recent months at Hopetoun North
Date/Time
WST
Temp

°C
Wind Pressure Rain
since 9am
mm
Weather Cloud Vis
km
Sea
Height
m
Swell
Dir
 
Speed
knots
Gust
knots
hPa Trend Height
m
Period
s
Dir
01/05:30am 6.7 N 3 4 1027.6 - 0.0 - - - - - - -
01/05:00am 6.7 N 2 3 1027.5 - 0.0 - - - - - - -
01/04:30am 6.9 NW 3 5 1027.4 - 0.0 - - - - - - -
01/04:00am 6.9 NW 4 5 1027.3 - 0.0 - - - - - - -
01/03:30am 7.5 N 2 4 1027.0 - 0.0 - - - - - - -
01/03:00am 8.6 S 1 3 1027.1 - 0.0 - - - - - - -
01/02:30am 8.7 S 2 5 1027.1 - 0.0 - - - - - - -
01/02:00am 8.9 ESE 3 6 1027.3 - 0.0 - - - - - - -
01/01:30am 8.8 SSE 4 6 1027.6 - 0.0 - - - - - - -
01/01:00am 8.9 S 4 6 1027.8 - 0.0 - - - - - - -
01/12:30am 9.0 SSW 8 12 1027.9 - 0.0 - - - - - - -
01/12:00am 8.8 SSW 5 7 1028.0 - 0.0 - - - - - - -
 
Date/Time
WST
Temp

°C
Wind Pressure Rain
since 9am
mm
Weather Cloud Vis
km
Sea
Height
m
Swell
Dir
 
Speed
knots
Gust
knots
hPa Trend Height
m
Period
s
Dir
31/11:30pm 9.1 S 8 12 1028.2 - 0.0 - - - - - - -
31/11:00pm 9.1 SSW 8 11 1028.2 - 0.0 - - - - - - -
31/10:30pm 9.2 SSW 8 12 1028.2 - 0.0 - - - - - - -
31/10:00pm 9.2 SSW 8 12 1028.1 - 0.0 - - - - - - -
31/09:30pm 8.8 SW 7 10 1028.1 - 0.0 - - - - - - -
31/09:00pm 8.3 SW 8 11 1027.9 - 0.0 - - - - - - -
31/08:30pm 8.6 WSW 10 15 1027.8 - 0.0 - - - - - - -
31/08:00pm 8.7 SSW 10 13 1027.7 - 0.0 - - - - - - -
31/07:30pm 7.9 SW 13 18 1027.6 - 0.0 - - - - - - -
31/07:00pm 8.0 SW 14 21 1027.6 - 0.0 - - - - - - -
31/06:30pm 9.1 SSW 7 14 1027.5 - 0.0 - - - - - - -
31/06:00pm 9.2 SW 9 19 1027.3 - 0.0 - - - - - - -
31/05:30pm 8.8 SSW 15 22 1027.3 - 0.0 - - - - - - -
31/05:00pm 9.4 SW 12 16 1027.0 - 0.0 - - - - - - -
31/04:30pm 9.6 SW 11 17 1026.7 - 0.0 - - - - - - -
31/04:00pm 9.6 SW 11 18 1026.6 - 0.0 - - - - - - -
31/03:30pm 9.4 SW 11 15 1026.5 - 0.0 - - - - - - -
31/03:00pm 9.7 SW 12 16 1026.3 - 0.0 - - - - - - -
31/02:30pm 9.6 SW 11 18 1026.0 - 0.0 - - - - - - -
31/02:00pm 10.7 SW 14 20 1025.9 - 0.0 - - - - - - -
31/01:30pm 9.8 SW 13 19 1025.8 - 0.0 - - - - - - -
31/01:00pm 9.5 SW 13 17 1025.7 - 0.0 - - - - - - -
31/12:30pm 9.8 SW 12 15 1025.8 - 0.0 - - - - - - -
31/12:00pm 10.0 SW 12 16 1025.9 - 0.0 - - - - - - -
31/11:30am 9.7 SSW 14 20 1026.0 - 0.0 - - - - - - -
31/11:00am 9.7 SSW 15 21 1025.9 - 0.0 - - - - - - -
31/10:30am 9.4 SSW 14 20 1025.7 - 0.0 - - - - - - -
31/10:00am 10.1 SSW 16 22 1025.3 - 0.0 - - - - - - -
31/09:30am 9.1 SSW 19 26 1024.9 - 0.0 - - - - - - -
31/09:00am 8.9 SSW 17 26 1024.5 - 0.6 - - - - - - -
31/08:30am 9.0 SSW 18 26 1024.0 - 0.6 - - - - - - -
31/08:00am 9.0 SSW 19 27 1023.6 - 0.6 - - - - - - -
31/07:30am 9.2 SSW 22 32 1022.7 - 0.6 - - - - - - -
31/07:02am 9.4 SSW 21 31 1022.2 - 0.6 - - - - - - -
31/07:00am 9.3 SSW 22 31 1022.2 - 0.6 - - - - - - -
31/06:34am 8.8 SW 19 30 1021.8 - 0.6 - - - - - - -
31/06:30am 8.6 SW 21 30 1021.9 - 0.6 - - - - - - -
31/06:10am 9.0 SW 20 31 1021.5 - 0.4 - - - - - - -
31/06:00am 8.7 SSW 21 28 1021.3 - 0.4 Recent precip. - - - - - -
31/05:56am 8.4 SW 20 27 1021.3 - 0.4 - - - - - - -
31/05:30am 7.9 W 17 28 1021.0 - 0.4 - - - - - - -
31/05:23am 7.6 WSW 15 25 1020.9 - 0.4 - - - - - - -
31/05:00am 8.5 WSW 17 25 1020.5 - 0.0 - - - - - - -
31/04:35am 9.5 WSW 16 27 1020.3 - 0.0 - - - - - - -
31/04:30am 9.7 WSW 18 27 1020.3 - 0.0 - - - - - - -
31/04:02am 10.6 WSW 17 28 1020.0 - 0.0 - - - - - - -
31/04:00am 10.6 WSW 17 25 1020.0 - 0.0 - - - - - - -
31/03:30am 10.1 WSW 17 25 1019.8 - 0.0 - - - - - - -
31/03:00am 10.3 WSW 16 28 1019.6 - 0.0 - - - - - - -
31/02:49am 10.3 WSW 16 26 1019.4 - 0.0 - - - - - - -
31/02:30am 10.3 WSW 18 27 1019.3 - 0.0 - - - - - - -
31/02:00am 10.3 WSW 22 34 1019.0 - 0.0 - - - - - - -
31/01:30am 10.6 WSW 22 35 1018.9 - 0.0 - - - - - - -
31/01:00am 10.6 WSW 22 36 1018.5 - 0.0 - - - - - - -
31/12:30am 10.2 WSW 21 34 1018.1 - 0.0 - - - - - - -
31/12:15am 9.9 WSW 19 30 1017.9 - 0.0 - - - - - - -
31/12:00am 9.6 WSW 23 31 1017.9 - 0.0 - - - - - - -
 
Date/Time
WST
Temp

°C
Wind Pressure Rain
since 9am
mm
Weather Cloud Vis
km
Sea
Height
m
Swell
Dir
 
Speed
knots
Gust
knots
hPa Trend Height
m
Period
s
Dir
30/11:54pm 10.2 SW 21 30 1017.9 - 0.0 - - - - - - -
30/11:30pm 11.2 W 17 28 1017.8 - 0.0 - - - - - - -
30/11:24pm 11.2 W 16 28 1017.7 - 0.0 - - - - - - -
30/11:00pm 11.2 W 16 24 1017.4 - 0.0 - - - - - - -
30/10:36pm 11.1 W 15 26 1017.2 - 0.0 - - - - - - -
30/10:30pm 11.1 W 16 25 1017.1 - 0.0 - - - - - - -
30/10:00pm 11.4 W 15 23 1017.0 - 0.0 - - - - - - -
30/09:34pm 11.9 W 16 30 1016.8 - 0.0 - - - - - - -
30/09:30pm 11.9 W 15 22 1016.8 - 0.0 - - - - - - -
30/09:00pm 11.8 W 10 17 1016.5 - 0.0 - - - - - - -
30/08:30pm 12.3 W 11 17 1016.1 - 0.0 - - - - - - -
30/08:00pm 13.5 W 12 18 1016.5 - 0.0 - - - - - - -
30/07:30pm 13.1 WNW 10 16 1016.2 - 0.0 - - - - - - -
30/07:00pm 13.3 WNW 9 15 1016.2 - 0.0 - - - - - - -
30/06:30pm 13.8 WNW 9 16 1016.1 - 0.0 - - - - - - -
30/06:00pm 14.0 NW 8 16 1015.8 - 0.0 - - - - - - -
30/05:30pm 14.8 WNW 10 18 1015.7 - 0.0 - - - - - - -
30/05:00pm 15.5 WNW 13 19 1015.3 - 0.0 - - - - - - -
30/04:30pm 16.3 W 14 20 1015.0 - 0.0 - - - - - - -
30/04:00pm 16.4 W 13 18 1015.0 - 0.0 - - - - - - -
30/03:30pm 16.5 WNW 13 21 1014.9 - 0.0 - - - - - - -
30/03:00pm 16.2 W 13 22 1014.9 - 0.0 - - - - - - -
30/02:30pm 15.8 WNW 14 21 1014.8 - 0.0 - - - - - - -
30/02:00pm 17.2 WNW 15 25 1014.8 - 0.0 - - - - - - -
30/01:57pm 17.6 WNW 15 25 1014.7 - 0.0 - - - - - - -
30/01:30pm 16.8 WNW 16 24 1015.0 - 0.0 - - - - - - -
30/01:00pm 16.0 WNW 15 24 1015.6 - 0.0 - - - - - - -
30/12:30pm 16.8 W 15 24 1016.1 - 0.0 - - - - - - -
30/12:00pm 14.9 W 15 23 1016.5 - 0.0 - - - - - - -
30/11:54am 14.9 W 15 26 1016.6 - 0.0 - - - - - - -
30/11:30am 14.7 W 18 23 1016.9 - 0.0 - - - - - - -
30/11:00am 14.8 W 15 22 1017.2 - 0.0 - - - - - - -
30/10:30am 14.4 WNW 16 25 1017.6 - 0.0 - - - - - - -
30/10:00am 14.4 W 16 24 1017.8 - 0.0 - - - - - - -
30/09:30am 13.8 W 11 22 1018.0 - 0.0 - - - - - - -
30/09:00am 12.7 WNW 9 15 1018.1 - 0.0 - - - - - - -
30/08:30am 12.3 WNW 6 13 1018.3 - 0.0 - - - - - - -
30/08:00am 11.8 WNW 8 15 1018.2 - 0.0 - - - - - - -
30/07:30am 11.2 WNW 9 13 1018.3 - 0.0 - - - - - - -
30/07:00am 10.8 WNW 9 15 1018.2 - 0.0 - - - - - - -
30/06:30am 10.7 WNW 9 13 1018.1 - 0.0 - - - - - - -
30/06:00am 11.1 WNW 8 12 1018.1 - 0.0 - - - - - - -
30/05:30am 11.2 NW 9 15 1017.9 - 0.0 - - - - - - -
30/05:00am 11.1 NW 8 12 1017.8 - 0.0 - - - - - - -
30/04:30am 10.9 NW 8 13 1017.9 - 0.0 - - - - - - -
30/04:00am 11.2 WNW 10 15 1018.0 - 0.0 - - - - - - -
30/03:30am 11.1 WNW 9 14 1018.2 - 0.0 - - - - - - -
30/03:00am 10.8 WNW 8 11 1018.5 - 0.0 - - - - - - -
30/02:30am 10.6 NW 8 12 1018.7 - 0.0 - - - - - - -
30/02:00am 10.2 NW 7 11 1018.8 - 0.0 - - - - - - -
30/01:30am 10.4 NW 11 16 1019.0 - 0.0 - - - - - - -
30/01:00am 10.4 WNW 13 20 1019.5 - 0.0 - - - - - - -
30/12:30am 10.6 W 10 14 1019.2 - 0.0 - - - - - - -
30/12:00am 10.3 WNW 8 11 1019.2 - 0.0 - - - - - - -
 
Date/Time
WST
Temp

°C
Wind Pressure Rain
since 9am
mm
Weather Cloud Vis
km
Sea
Height
m
Swell
Dir
 
Speed
knots
Gust
knots
hPa Trend Height
m
Period
s
Dir
29/11:30pm 10.0 NW 8 11 1019.4 - 0.0 - - - - - - -
29/11:00pm 11.5 NW 6 9 1019.6 - 0.0 - - - - - - -
29/10:30pm 11.7 NW 6 10 1019.8 - 0.0 - - - - - - -
29/10:00pm 11.8 NW 6 10 1019.9 - 0.0 - - - - - - -
29/09:30pm 12.4 NW 6 11 1019.9 - 0.0 - - - - - - -
29/09:00pm 12.9 WNW 5 8 1020.1 - 0.0 - - - - - - -
29/08:30pm 13.6 WNW 6 9 1020.1 - 0.0 - - - - - - -
29/08:00pm 14.0 WNW 8 12 1020.2 - 0.0 - - - - - - -
29/07:30pm 14.4 NW 7 11 1020.1 - 0.0 - - - - - - -
29/07:00pm 14.3 NW 8 14 1020.1 - 0.0 - - - - - - -
29/06:30pm 14.6 NW 9 15 1019.8 - 0.0 - - - - - - -
29/06:00pm 14.5 WNW 8 13 1019.6 - 0.0 - - - - - - -
29/05:30pm 14.5 W 6 9 1019.4 - 0.0 - - - - - - -
29/05:00pm 14.9 W 9 14 1019.2 - 0.0 - - - - - - -
29/04:30pm 15.4 WNW 7 10 1019.1 - 0.0 - - - - - - -
29/04:00pm 16.0 W 8 13 1019.0 - 0.0 - - - - - - -
29/03:30pm 16.6 WNW 10 15 1019.0 - 0.0 - - - - - - -
29/03:00pm 18.2 WNW 9 16 1018.8 - 0.0 - - - - - - -
29/02:30pm 17.2 WNW 10 17 1018.7 - 0.0 - - - - - - -
29/02:00pm 17.4 W 10 15 1018.9 - 0.0 - - - - - - -
29/01:30pm 17.3 W 11 16 1019.1 - 0.0 - - - - - - -
29/01:00pm 17.2 W 11 16 1019.3 - 0.0 - - - - - - -
29/12:30pm 16.8 W 10 15 1019.6 - 0.0 - - - - - - -
29/12:00pm 15.9 W 13 19 1020.2 - 0.0 - - - - - - -
29/11:30am 15.8 W 12 16 1020.5 - 0.0 - - - - - - -
29/11:00am 15.7 W 13 17 1020.7 - 0.0 - - - - - - -
29/10:30am 15.2 W 13 18 1021.0 - 0.0 - - - - - - -
29/10:00am 14.4 W 11 16 1021.2 - 0.0 - - - - - - -
29/09:30am 13.5 WNW 10 15 1021.3 - 0.0 - - - - - - -
29/09:00am 12.6 WNW 10 15 1021.1 - 0.0 - - - - - - -
29/08:30am 11.7 WNW 7 11 1021.0 - 0.0 - - - - - - -
29/08:00am 10.3 N 3 5 1020.7 - 0.0 - - - - - - -
29/07:30am 9.4 NW 5 9 1020.5 - 0.0 - - - - - - -
29/07:00am 9.5 WNW 7 10 1020.3 - 0.0 - - - - - - -
29/06:30am 9.1 W 7 10 1020.1 - 0.0 - - - - - - -
29/06:00am 9.0 W 6 9 1020.1 - 0.0 - - - - - - -

Other Formats:

Comma delimited format used in spreadsheet applications
http://www.bom.gov.au/fwo/IDW60701/IDW60701.95635.axf

JavaScript Object Notation format (JSON) in row-major order
http://www.bom.gov.au/fwo/IDW60701/IDW60701.95635.json